Aérodrome :
LOGIN :

S'inscrire | Disclaimer

   EN    FR    IT 

 










Légende :    VFR   VFR Marginal   IFR   IFR Intensif   IFR Très Intensif
Visi : 
Plafond : 
>= 8 km
>= 3000ft
5 à 8 km
1000 à 3000 ft
1500m à 5 km
500 à 1000 ft
800 à 1500m
200 à 500 ft
< 800m
< 200 ft
Symboles :   Orages  Brouillard  Fortes neiges  Fortes précipitations  Vent > 20 kt
SIGMETs :   Divers  Orages  Givrage  Turbulence  Onde Orograph.  Cendres Volcan.






- Altitude de l'aérodrome : 1 ft


EGCK - Caernarfon

DERNIER METAR :
  • 222250Z AUTO VRB03KT 9999 BKN031/// 09/05 Q0992

METARs EXPIRÉS :
  • 222220Z AUTO 08005KT 050V110 9999 NCD 09/06 Q0992
  • 222150Z AUTO 09007KT 050V140 9999 -RA FEW005/// 09/06 Q0992
  • 222120Z AUTO 10006KT 060V140 9999 -RA SCT031/// OVC047/// 09/06 Q0992
  • 222050Z AUTO 11010KT 9999 -RA FEW025/// SCT034/// 08/06 Q0992
  • 222020Z AUTO 09008KT 9999 -RA FEW033/// OVC043/// 08/05 Q0992

TAF TAF EGCK
Valide du 22 à 21h jusqu'au 23 à 06h UTC


221958Z 2221/2306 10008KT 9999 SCT030
TEMPO 2221/2223 8000 RA
BECMG 2222/2301 04010KT
TEMPO 2301/2306 6000 RA BKN008



MET'MAP, la Météo Aéronautique d'un coup d'oeil ! - Copyright ORBIFLY Décembre 2007 - Disclaimer

ORBIFLY MET'MAP TEAM :

Programmation & Développement : Alexandra Zaïnal
Conception & Développement : Baudouin d'Aumeries
Co-Programmation & Développement : Marc-Olivier Méhu
Soutien technique & logistique : Manuel Goepfert

Contact : metmap@orbifly.com




SOURCES & CREDITS :

   NOAA